| time (UTC) | temp C | wind direction | speed KPH | gust KPH | rain 1hr cm | rain 24hr cm | rain mn cm | humidity % | barometer mb |
| 20260903211530 | 13 | 157 | 3.2 | 9.7 | 0.13 | 0.79 | 0.56 | 87 | 997.7 |
| 20260903211034 | 13 | 166 | 3.2 | 9.7 | 0.13 | 0.79 | 0.56 | 87 | 997.8 |
| 20260903210541 | 13 | 178 | 3.2 | 17.7 | 0.13 | 0.79 | 0.56 | 86 | 997.7 |
| 20260903210020 | 13 | 171 | 3.2 | 17.7 | 0.15 | 0.81 | 0.56 | 86 | 997.7 |
| 20260903205530 | 13 | 123 | 1.6 | 9.7 | 0.15 | 0.81 | 0.56 | 86 | 997.9 |
| 20260903205032 | 13 | 184 | 1.6 | 9.7 | 0.15 | 0.81 | 0.56 | 86 | 997.8 |
| 20260903204559 | 13 | 197 | 0.0 | 4.8 | 0.15 | 0.81 | 0.56 | 85 | 997.8 |
| 20260903204017 | 13 | 198 | 0.0 | 6.4 | 0.15 | 0.81 | 0.56 | 84 | 997.8 |
| 20260903203522 | 13 | 197 | 0.0 | 8.0 | 0.13 | 0.79 | 0.53 | 83 | 997.7 |
| 20260903203051 | 13 | 173 | 3.2 | 14.5 | 0.13 | 0.79 | 0.53 | 82 | 997.8 |
| 20260903202556 | 13 | 175 | 4.8 | 14.5 | 0.10 | 0.76 | 0.51 | 82 | 997.9 |
| 20260903202101 | 14 | 195 | 3.2 | 12.9 | 0.08 | 0.71 | 0.48 | 82 | 997.8 |
| 20260903201535 | 15 | 223 | 3.2 | 14.5 | 0.03 | 0.69 | 0.43 | 82 | 997.6 |
| 20260903201044 | 15 | 198 | 3.2 | 11.3 | 0.03 | 0.69 | 0.43 | 82 | 997.6 |
| 20260903200551 | 15 | 186 | 3.2 | 11.3 | 0.03 | 0.69 | 0.43 | 81 | 997.6 |
| 20260903200025 | 15 | 198 | 3.2 | 24.1 | 0.00 | 0.84 | 0.41 | 80 | 997.6 |
| 20260903195530 | 15 | 207 | 3.2 | 24.1 | 0.00 | 0.84 | 0.41 | 80 | 997.6 |
| 20260903195037 | 16 | 171 | 3.2 | 17.7 | 0.00 | 0.84 | 0.41 | 79 | 997.6 |
| 20260903194553 | 16 | 226 | 6.4 | 17.7 | 0.00 | 0.84 | 0.41 | 78 | 997.6 |
| 20260903194059 | 16 | 221 | 1.6 | 11.3 | 0.00 | 0.84 | 0.41 | 80 | 997.5 |
| 20260903193606 | 16 | 169 | 4.8 | 11.3 | 0.00 | 0.84 | 0.41 | 79 | 997.5 |
| 20260903193044 | 16 | 174 | 3.2 | 14.5 | 0.00 | 0.84 | 0.41 | 81 | 997.5 |
| 20260903192545 | 16 | 178 | 4.8 | 14.5 | 0.00 | 0.84 | 0.41 | 80 | 997.6 |
| 20260903192050 | 15 | 237 | 1.6 | 11.3 | 0.00 | 0.84 | 0.41 | 81 | 997.5 |
| 20260903191527 | 15 | 160 | 3.2 | 19.3 | 0.00 | 0.84 | 0.41 | 80 | 997.6 |
| 20260903191031 | 15 | 182 | 4.8 | 17.7 | 0.00 | 0.84 | 0.41 | 80 | 997.6 |
| 20260903190537 | 15 | 254 | 3.2 | 19.3 | 0.00 | 0.84 | 0.41 | 81 | 997.6 |
| 20260903190000 | 15 | 235 | 6.4 | 17.7 | 0.00 | 1.09 | 0.41 | 81 | 997.5 |
| 20260903185507 | 15 | 214 | 1.6 | 12.9 | 0.00 | 1.09 | 0.41 | 82 | 997.5 |
| 20260903185013 | 15 | 177 | 3.2 | 12.9 | 0.00 | 1.09 | 0.41 | 82 | 997.6 |
| 20260903184541 | 15 | 256 | 4.8 | 12.9 | 0.00 | 1.09 | 0.41 | 83 | 997.7 |
| 20260903184043 | 15 | 199 | 4.8 | 14.5 | 0.00 | 1.09 | 0.41 | 83 | 997.7 |
| 20260903183550 | 15 | 175 | 4.8 | 27.4 | 0.00 | 1.09 | 0.41 | 82 | 997.8 |
| 20260903183029 | 15 | 184 | 12.9 | 27.4 | 0.00 | 1.09 | 0.41 | 83 | 997.7 |
| 20260903182539 | 15 | 122 | 4.8 | 16.1 | 0.00 | 1.09 | 0.41 | 84 | 997.8 |
| 20260903182045 | 15 | 132 | 4.8 | 16.1 | 0.00 | 1.09 | 0.41 | 83 | 997.7 |
| 20260903181517 | 15 | 175 | 4.8 | 16.1 | 0.00 | 1.09 | 0.41 | 84 | 997.8 |
| 20260903181024 | 14 | 174 | 3.2 | 16.1 | 0.00 | 1.09 | 0.41 | 85 | 997.7 |
| 20260903180528 | 14 | 252 | 4.8 | 16.1 | 0.00 | 1.09 | 0.41 | 85 | 997.6 |
| 20260903180100 | 14 | 174 | 6.4 | 25.7 | 0.00 | 1.35 | 0.41 | 85 | 997.5 |
| 20260903175502 | 14 | 194 | 4.8 | 27.4 | 0.00 | 1.35 | 0.41 | 86 | 997.4 |
| 20260903175010 | 14 | 149 | 3.2 | 19.3 | 0.00 | 1.35 | 0.41 | 87 | 997.6 |
| 20260903174549 | 14 | 126 | 6.4 | 19.3 | 0.00 | 1.35 | 0.41 | 87 | 997.7 |
| 20260903174057 | 14 | 186 | 1.6 | 8.0 | 0.00 | 1.35 | 0.41 | 88 | 997.5 |
| 20260903173506 | 14 | 238 | 1.6 | 19.3 | 0.00 | 1.35 | 0.41 | 88 | 997.6 |
| 20260903173043 | 14 | 113 | 4.8 | 19.3 | 0.00 | 1.35 | 0.41 | 89 | 997.5 |
| 20260903172548 | 13 | 194 | 1.6 | 14.5 | 0.00 | 1.35 | 0.41 | 89 | 997.5 |
| 20260903172055 | 13 | 220 | 3.2 | 12.9 | 0.00 | 1.35 | 0.41 | 89 | 997.5 |
| 20260903171528 | 13 | 194 | 0.0 | 9.7 | 0.00 | 1.35 | 0.41 | 89 | 997.5 |
| 20260903171035 | 13 | 163 | 1.6 | 12.9 | 0.00 | 1.35 | 0.41 | 89 | 997.5 |
| 20260903170546 | 13 | 191 | 3.2 | 12.9 | 0.00 | 1.35 | 0.41 | 89 | 997.5 |
| 20260903170011 | 13 | 226 | 0.0 | 9.7 | 0.03 | 1.40 | 0.41 | 89 | 997.5 |
| 20260903165512 | 13 | 147 | 1.6 | 9.7 | 0.03 | 1.40 | 0.41 | 90 | 997.6 |
| 20260903165026 | 13 | 181 | 1.6 | 6.4 | 0.03 | 1.40 | 0.41 | 90 | 997.8 |
| 20260903164554 | 13 | 203 | 1.6 | 16.1 | 0.03 | 1.40 | 0.41 | 90 | 997.9 |
| 20260903164103 | 12 | 154 | 6.4 | 16.1 | 0.03 | 1.40 | 0.41 | 90 | 997.9 |
| 20260903163509 | 13 | 234 | 3.2 | 8.0 | 0.03 | 1.40 | 0.41 | 90 | 998.0 |
| 20260903163047 | 12 | 46 | 0.0 | 8.0 | 0.03 | 1.40 | 0.41 | 90 | 998.0 |
| 20260903162554 | 12 | 171 | 0.0 | 8.0 | 0.03 | 1.40 | 0.41 | 91 | 998.0 |
| 20260903162100 | 12 | 207 | 1.6 | 12.9 | 0.05 | 1.40 | 0.41 | 90 | 998.0 |
| 20260903161528 | 12 | 212 | 1.6 | 12.9 | 0.05 | 1.40 | 0.41 | 90 | 998.2 |
| 20260903161032 | 12 | 211 | 0.0 | 4.8 | 0.08 | 1.40 | 0.41 | 90 | 998.0 |
| 20260903160540 | 12 | 211 | 1.6 | 4.8 | 0.10 | 1.40 | 0.41 | 90 | 998.2 |
| 20260903160003 | 12 | 217 | 0.0 | 9.7 | 0.08 | 1.37 | 0.38 | 90 | 998.1 |
| 20260903155516 | 12 | 200 | 0.0 | 4.8 | 0.08 | 1.37 | 0.38 | 90 | 998.0 |
| 20260903155023 | 12 | 200 | 0.0 | 6.4 | 0.08 | 1.37 | 0.38 | 90 | 998.0 |
| 20260903154556 | 12 | 200 | 0.0 | 6.4 | 0.10 | 1.37 | 0.38 | 90 | 998.0 |
| 20260903154048 | 12 | 158 | 0.0 | 12.9 | 0.10 | 1.37 | 0.38 | 90 | 998.0 |
| 20260903153557 | 12 | 157 | 1.6 | 14.5 | 0.10 | 1.37 | 0.38 | 90 | 998.1 |
| 20260903153037 | 12 | 199 | 1.6 | 14.5 | 0.10 | 1.37 | 0.38 | 90 | 998.0 |
| 20260903152541 | 11 | 168 | 1.6 | 14.5 | 0.10 | 1.37 | 0.38 | 90 | 997.9 |
| 20260903152049 | 11 | 180 | 3.2 | 19.3 | 0.10 | 1.35 | 0.36 | 90 | 997.8 |
| 20260903151521 | 12 | 147 | 4.8 | 19.3 | 0.10 | 1.35 | 0.36 | 90 | 997.7 |
| 20260903151029 | 11 | 167 | 4.8 | 19.3 | 0.08 | 1.32 | 0.33 | 90 | 997.6 |
| 20260903150526 | 11 | 252 | 6.4 | 14.5 | 0.05 | 1.30 | 0.30 | 90 | 997.7 |
| 20260903150105 | 11 | 202 | 4.8 | 14.5 | 0.05 | 1.30 | 0.30 | 90 | 997.7 |
| 20260903145506 | 11 | 203 | 6.4 | 16.1 | 0.08 | 1.30 | 0.30 | 90 | 997.4 |
| 20260903145102 | 11 | 211 | 6.4 | 20.9 | 0.08 | 1.30 | 0.30 | 90 | 997.5 |
| 20260903144540 | 12 | 243 | 6.4 | 20.9 | 0.05 | 1.27 | 0.28 | 90 | 997.5 |
| 20260903144046 | 12 | 215 | 4.8 | 16.1 | 0.08 | 1.27 | 0.28 | 90 | 997.4 |
| 20260903143554 | 12 | 154 | 4.8 | 19.3 | 0.08 | 1.27 | 0.28 | 90 | 997.3 |
| 20260903143022 | 12 | 140 | 1.6 | 19.3 | 0.08 | 1.27 | 0.28 | 90 | 997.2 |
| 20260903142530 | 12 | 199 | 3.2 | 14.5 | 0.08 | 1.27 | 0.28 | 90 | 997.3 |
| 20260903142040 | 12 | 271 | 3.2 | 14.5 | 0.05 | 1.24 | 0.25 | 90 | 997.3 |
| 20260903141608 | 12 | 184 | 3.2 | 16.1 | 0.05 | 1.24 | 0.25 | 90 | 997.2 |
| 20260903141004 | 12 | 165 | 3.2 | 16.1 | 0.05 | 1.24 | 0.25 | 90 | 997.1 |
| 20260903140523 | 12 | 221 | 6.4 | 16.1 | 0.05 | 1.24 | 0.25 | 90 | 997.1 |
| 20260903140048 | 12 | 196 | 4.8 | 16.1 | 0.05 | 1.24 | 0.25 | 90 | 997.2 |
| 20260903135556 | 12 | 182 | 4.8 | 16.1 | 0.05 | 1.22 | 0.23 | 90 | 997.1 |
| 20260903135006 | 12 | 193 | 6.4 | 19.3 | 0.05 | 1.22 | 0.23 | 90 | 996.9 |
| 20260903134546 | 12 | 188 | 4.8 | 16.1 | 0.08 | 1.22 | 0.23 | 90 | 996.9 |
| 20260903134044 | 12 | 218 | 3.2 | 16.1 | 0.05 | 1.19 | 0.20 | 90 | 996.9 |
| 20260903133552 | 12 | 208 | 4.8 | 11.3 | 0.10 | 1.19 | 0.20 | 90 | 997.0 |
| 20260903133011 | 12 | 190 | 4.8 | 12.9 | 0.13 | 1.19 | 0.20 | 90 | 996.9 |
| 20260903132602 | 12 | 223 | 3.2 | 12.9 | 0.15 | 1.19 | 0.20 | 90 | 997.0 |
| 20260903132008 | 12 | 205 | 3.2 | 20.9 | 0.15 | 1.19 | 0.20 | 89 | 996.8 |
| 20260903131601 | 12 | 189 | 6.4 | 20.9 | 0.15 | 1.19 | 0.20 | 89 | 996.7 |
| 20260903131049 | 12 | 172 | 4.8 | 17.7 | 0.18 | 1.19 | 0.20 | 89 | 996.7 |
| 20260903130551 | 12 | 175 | 3.2 | 20.9 | 0.18 | 1.19 | 0.20 | 89 | 996.8 |
| 20260903130034 | 12 | 248 | 4.8 | 20.9 | 0.18 | 1.19 | 0.20 | 89 | 996.8 |
| 20260903125544 | 12 | 196 | 6.4 | 14.5 | 0.15 | 1.17 | 0.18 | 89 | 996.8 |
| 20260903125052 | 12 | 229 | 3.2 | 8.0 | 0.15 | 1.17 | 0.18 | 89 | 996.7 |
| 20260903124524 | 12 | 166 | 1.6 | 8.0 | 0.13 | 1.14 | 0.15 | 89 | 996.9 |
| 20260903124029 | 12 | 119 | 1.6 | 12.9 | 0.10 | 1.12 | 0.15 | 89 | 997.0 |
| 20260903123533 | 12 | 140 | 3.2 | 17.7 | 0.08 | 1.09 | 0.10 | 89 | 997.0 |
| 20260903123105 | 12 | 155 | 3.2 | 17.7 | 0.03 | 1.04 | 0.08 | 89 | 997.0 |
| 20260903122513 | 12 | 180 | 4.8 | 14.5 | 0.03 | 1.04 | 0.05 | 89 | 997.0 |
| 20260903122022 | 12 | 225 | 1.6 | 14.5 | 0.03 | 1.04 | 0.05 | 89 | 997.1 |
| 20260903121559 | 12 | 209 | 3.2 | 16.1 | 0.03 | 1.04 | 0.05 | 89 | 997.0 |
| 20260903121052 | 12 | 163 | 3.2 | 16.1 | 0.00 | 1.02 | 0.05 | 89 | 996.9 |
| 20260903120600 | 12 | 273 | 1.6 | 16.1 | 0.00 | 1.02 | 0.03 | 89 | 997.0 |
| 20260903120030 | 12 | 184 | 3.2 | 12.9 | 0.00 | 1.02 | 0.03 | 89 | 997.0 |
| 20260903115539 | 12 | 143 | 3.2 | 12.9 | 0.00 | 1.02 | 0.03 | 89 | 997.0 |
| 20260903115045 | 12 | 150 | 3.2 | 17.7 | 0.00 | 1.02 | 0.03 | 89 | 996.9 |
| 20260903114522 | 12 | 213 | 3.2 | 11.3 | 0.00 | 1.02 | 0.03 | 89 | 997.0 |
| 20260903114020 | 12 | 169 | 3.2 | 12.9 | 0.00 | 1.02 | 0.03 | 89 | 997.0 |
| 20260903113527 | 12 | 186 | 1.6 | 16.1 | 0.00 | 1.02 | 0.03 | 89 | 997.0 |
| 20260903113058 | 12 | 123 | 4.8 | 20.9 | 0.00 | 1.02 | 0.03 | 89 | 997.1 |
| 20260903112502 | 12 | 218 | 4.8 | 19.3 | 0.00 | 1.02 | 0.03 | 89 | 997.1 |
| 20260903112010 | 12 | 159 | 3.2 | 16.1 | 0.00 | 1.02 | 0.03 | 89 | 997.1 |
| 20260903111550 | 12 | 167 | 6.4 | 16.1 | 0.00 | 1.02 | 0.03 | 89 | 997.0 |
| 20260903111057 | 12 | 143 | 3.2 | 20.9 | 0.00 | 1.02 | 0.03 | 89 | 996.9 |
| 20260903110558 | 12 | 161 | 6.4 | 20.9 | 0.00 | 1.02 | 0.03 | 89 | 996.9 |
| 20260903110030 | 12 | 132 | 1.6 | 11.3 | 0.00 | 1.02 | 0.03 | 89 | 996.9 |
| 20260903105536 | 12 | 194 | 6.4 | 11.3 | 0.00 | 1.02 | 0.03 | 89 | 997.0 |
| 20260903105039 | 12 | 180 | 3.2 | 11.3 | 0.00 | 1.02 | 0.03 | 89 | 997.1 |
| 20260903104508 | 12 | 144 | 0.0 | 16.1 | 0.00 | 1.02 | 0.03 | 89 | 997.0 |
| 20260903104028 | 12 | 173 | 4.8 | 16.1 | 0.00 | 1.02 | 0.03 | 89 | 997.1 |
| 20260903103521 | 12 | 170 | 3.2 | 22.5 | 0.03 | 1.02 | 0.03 | 89 | 997.1 |
| 20260903103058 | 12 | 131 | 6.4 | 22.5 | 0.03 | 1.02 | 0.03 | 89 | 997.2 |
| 20260903102515 | 12 | 136 | 4.8 | 19.3 | 0.03 | 1.02 | 0.03 | 89 | 997.0 |
| 20260903102010 | 12 | 213 | 4.8 | 20.9 | 0.03 | 1.02 | 0.03 | 89 | 997.1 |
| 20260903101551 | 12 | 174 | 6.4 | 20.9 | 0.03 | 1.02 | 0.03 | 89 | 997.1 |
| 20260903101057 | 12 | 207 | 0.0 | 22.5 | 0.03 | 1.02 | 0.03 | 89 | 997.1 |
| 20260903100607 | 12 | 196 | 3.2 | 14.5 | 0.03 | 1.02 | 0.03 | 89 | 997.0 |
| 20260903100039 | 12 | 219 | 3.2 | 14.5 | 0.03 | 1.02 | 0.03 | 89 | 996.9 |
| 20260903095533 | 12 | 190 | 1.6 | 8.0 | 0.03 | 1.02 | 0.03 | 89 | 997.0 |
| 20260903095044 | 12 | 252 | 1.6 | 11.3 | 0.03 | 1.02 | 0.03 | 89 | 996.9 |
| 20260903094515 | 12 | 159 | 3.2 | 11.3 | 0.03 | 1.02 | 0.03 | 89 | 996.9 |
| 20260903094026 | 12 | 98 | 0.0 | 14.5 | 0.03 | 1.02 | 0.03 | 89 | 997.0 |
| 20260903093534 | 12 | 228 | 3.2 | 14.5 | 0.00 | 0.99 | 0.00 | 89 | 997.0 |
| 20260903093102 | 12 | 108 | 3.2 | 12.9 | 0.00 | 0.99 | 0.00 | 89 | 997.1 |
| 20260903092557 | 12 | 211 | 3.2 | 12.9 | 0.00 | 0.99 | 0.00 | 89 | 997.0 |
| 20260903092003 | 12 | 175 | 1.6 | 11.3 | 0.00 | 0.99 | 0.00 | 89 | 997.0 |
| 20260903091552 | 12 | 211 | 1.6 | 14.5 | 0.00 | 0.99 | 0.00 | 89 | 997.1 |
| 20260903091043 | 12 | 227 | 3.2 | 17.7 | 0.00 | 0.99 | 0.00 | 89 | 997.0 |
| 20260903090550 | 12 | 205 | 4.8 | 30.6 | 0.00 | 0.99 | 0.00 | 89 | 997.1 |
| 20260903090027 | 12 | 168 | 3.2 | 29.0 | 0.00 | 0.99 | 0.00 | 89 | 997.2 |
| 20260903085527 | 12 | 165 | 4.8 | 17.7 | 0.00 | 0.99 | 0.00 | 89 | 997.2 |
| 20260903085019 | 12 | 173 | 3.2 | 17.7 | 0.00 | 0.99 | 0.00 | 89 | 997.2 |
| 20260903084602 | 12 | 175 | 1.6 | 6.4 | 0.00 | 0.99 | 0.00 | 89 | 997.2 |
| 20260903084018 | 12 | 213 | 1.6 | 11.3 | 0.00 | 0.99 | 0.00 | 89 | 997.2 |
| 20260903083509 | 12 | 132 | 1.6 | 14.5 | 0.00 | 0.99 | 0.00 | 89 | 997.3 |
| 20260903083050 | 12 | 238 | 3.2 | 14.5 | 0.00 | 0.99 | 0.00 | 89 | 997.3 |
| 20260903082551 | 12 | 160 | 3.2 | 12.9 | 0.00 | 0.99 | 0.00 | 89 | 997.3 |
| 20260903082054 | 12 | 206 | 3.2 | 14.5 | 0.00 | 0.99 | 0.00 | 89 | 997.3 |
| 20260903081534 | 12 | 167 | 3.2 | 16.1 | 0.00 | 0.99 | 0.00 | 89 | 997.3 |
| 20260903081036 | 12 | 137 | 3.2 | 9.7 | 0.00 | 0.99 | 0.00 | 89 | 997.2 |
| 20260903080542 | 12 | 148 | 3.2 | 9.7 | 0.00 | 0.99 | 0.00 | 89 | 997.3 |
| 20260903080003 | 12 | 192 | 1.6 | 6.4 | 0.00 | 0.99 | 0.00 | 89 | 997.4 |
| 20260903075511 | 12 | 179 | 0.0 | 11.3 | 0.00 | 0.99 | 0.00 | 89 | 997.5 |
| 20260903075029 | 12 | 246 | 3.2 | 11.3 | 0.00 | 0.99 | 0.00 | 89 | 997.5 |
| 20260903074553 | 12 | 175 | 3.2 | 12.9 | 0.00 | 0.99 | 0.00 | 89 | 997.6 |
| 20260903074003 | 12 | 188 | 1.6 | 12.9 | 0.00 | 0.99 | 0.00 | 89 | 997.6 |
| 20260903073512 | 12 | 160 | 1.6 | 11.3 | 0.00 | 0.99 | 0.00 | 89 | 997.4 |
| 20260903072537 | 12 | 184 | 0.0 | 9.7 | 0.00 | 0.99 | 0.00 | 89 | 997.4 |
| 20260903072045 | 12 | 167 | 1.6 | 11.3 | 0.00 | 0.99 | 0.00 | 89 | 997.4 |
| 20260903071520 | 12 | 200 | 4.8 | 12.9 | 0.00 | 0.99 | 0.00 | 89 | 997.4 |
| 20260903071025 | 12 | 267 | 1.6 | 6.4 | 0.00 | 0.99 | 0.00 | 89 | 997.3 |
| 20260903070527 | 12 | 153 | 1.6 | 11.3 | 0.00 | 0.99 | 0.00 | 89 | 997.3 |
| 20260903070100 | 12 | 224 | 3.2 | 11.3 | 0.00 | 0.99 | 0.99 | 89 | 997.2 |
| 20260903065600 | 12 | 200 | 0.0 | 9.7 | 0.00 | 0.99 | 0.99 | 89 | 997.2 |
| 20260903065004 | 12 | 55 | 1.6 | 6.4 | 0.00 | 0.99 | 0.99 | 89 | 997.2 |
| 20260903064540 | 12 | 215 | 1.6 | 8.0 | 0.00 | 0.99 | 0.99 | 89 | 997.3 |
| 20260903064047 | 12 | 224 | 1.6 | 8.0 | 0.00 | 0.99 | 0.99 | 89 | 997.4 |
| 20260903063550 | 12 | 203 | 1.6 | 14.5 | 0.00 | 0.99 | 0.99 | 89 | 997.3 |
| 20260903063028 | 12 | 146 | 3.2 | 11.3 | 0.00 | 0.99 | 0.99 | 89 | 997.3 |
| 20260903062534 | 12 | 228 | 3.2 | 14.5 | 0.00 | 0.99 | 0.99 | 89 | 997.3 |
| 20260903062040 | 12 | 209 | 0.0 | 14.5 | 0.03 | 0.99 | 0.99 | 89 | 997.3 |
| 20260903061512 | 12 | 184 | 0.0 | 9.7 | 0.03 | 0.99 | 0.99 | 89 | 997.4 |
| 20260903061024 | 12 | 177 | 3.2 | 11.3 | 0.03 | 0.99 | 0.99 | 89 | 997.5 |
| 20260903060528 | 12 | 160 | 1.6 | 12.9 | 0.03 | 0.99 | 0.99 | 89 | 997.5 |
| 20260903060120 | 12 | 252 | 0.0 | 12.9 | 0.03 | 0.99 | 0.99 | 89 | 997.4 |
| 20260903055501 | 12 | 214 | 1.6 | 8.0 | 0.03 | 0.99 | 0.99 | 89 | 997.5 |
| 20260903055012 | 12 | 164 | 3.2 | 14.5 | 0.03 | 0.99 | 0.99 | 89 | 997.5 |
| 20260903054546 | 13 | 203 | 1.6 | 14.5 | 0.03 | 0.99 | 0.99 | 89 | 997.5 |
| 20260903054054 | 13 | 279 | 0.0 | 6.4 | 0.03 | 0.99 | 0.99 | 89 | 997.4 |
| 20260903053559 | 13 | 207 | 1.6 | 6.4 | 0.03 | 0.99 | 0.99 | 89 | 997.4 |
| 20260903053038 | 13 | 235 | 0.0 | 12.9 | 0.03 | 0.99 | 0.99 | 89 | 997.4 |
| 20260903052541 | 13 | 181 | 1.6 | 12.9 | 0.03 | 0.99 | 0.99 | 89 | 997.4 |
| 20260903052048 | 13 | 174 | 3.2 | 12.9 | 0.00 | 0.97 | 0.97 | 89 | 997.4 |
| 20260903051517 | 13 | 205 | 1.6 | 9.7 | 0.00 | 0.97 | 0.97 | 89 | 997.4 |
| 20260903051024 | 13 | 190 | 0.0 | 6.4 | 0.00 | 0.97 | 0.97 | 89 | 997.4 |
| 20260903050529 | 13 | 168 | 3.2 | 6.4 | 0.00 | 0.97 | 0.97 | 89 | 997.4 |
| 20260903050001 | 13 | 175 | 0.0 | 6.4 | 0.00 | 0.97 | 0.97 | 89 | 997.3 |
| 20260903045513 | 13 | 207 | 0.0 | 6.4 | 0.00 | 0.97 | 0.97 | 89 | 997.3 |
| 20260903045020 | 13 | 176 | 0.0 | 3.2 | 0.00 | 0.97 | 0.97 | 89 | 997.3 |
| 20260903044552 | 13 | 175 | 0.0 | 6.4 | 0.00 | 0.97 | 0.97 | 89 | 997.3 |
| 20260903044103 | 13 | 174 | 0.0 | 9.7 | 0.00 | 0.97 | 0.97 | 89 | 997.2 |
| 20260903043549 | 13 | 173 | 0.0 | 9.7 | 0.00 | 0.97 | 0.97 | 89 | 997.3 |
| 20260903043016 | 13 | 236 | 0.0 | 8.0 | 0.00 | 0.97 | 0.97 | 89 | 997.2 |
| 20260903042525 | 13 | 151 | 0.0 | 8.0 | 0.00 | 0.97 | 0.97 | 89 | 997.1 |
| 20260903042032 | 13 | 167 | 0.0 | 9.7 | 0.00 | 0.97 | 0.97 | 89 | 997.0 |
| 20260903041559 | 13 | 170 | 3.2 | 9.7 | 0.00 | 0.97 | 0.97 | 88 | 997.0 |
| 20260903041007 | 13 | 258 | 1.6 | 4.8 | 0.00 | 0.97 | 0.97 | 88 | 997.0 |
| 20260903040513 | 13 | 259 | 0.0 | 11.3 | 0.00 | 0.97 | 0.97 | 88 | 996.9 |
| 20260903040036 | 13 | 251 | 1.6 | 11.3 | 0.00 | 0.97 | 0.97 | 88 | 997.0 |
| 20260903035541 | 13 | 211 | 0.0 | 4.8 | 0.00 | 0.97 | 0.97 | 88 | 996.9 |
| 20260903035049 | 13 | 190 | 0.0 | 4.8 | 0.00 | 0.97 | 0.97 | 88 | 996.9 |
| 20260903034502 | 13 | 190 | 0.0 | 3.2 | 0.00 | 0.97 | 0.97 | 88 | 996.6 |
| 20260903034007 | 13 | 190 | 0.0 | 3.2 | 0.00 | 0.97 | 0.97 | 88 | 996.6 |
| 20260903033523 | 13 | 190 | 0.0 | 0.0 | 0.00 | 0.97 | 0.97 | 88 | 996.5 |
| 20260903033053 | 13 | 189 | 0.0 | 0.0 | 0.00 | 0.97 | 0.97 | 87 | 996.4 |
| 20260903032504 | 13 | 189 | 0.0 | 3.2 | 0.00 | 0.97 | 0.97 | 88 | 996.3 |
| 20260903032013 | 13 | 189 | 0.0 | 4.8 | 0.00 | 0.97 | 0.97 | 87 | 996.3 |
| 20260903031549 | 13 | 189 | 0.0 | 9.7 | 0.00 | 0.97 | 0.97 | 87 | 996.2 |
| 20260903031055 | 13 | 183 | 0.0 | 9.7 | 0.00 | 0.97 | 0.97 | 87 | 996.2 |
| 20260903030603 | 13 | 205 | 0.0 | 4.8 | 0.00 | 0.97 | 0.97 | 87 | 996.1 |
| 20260903030046 | 13 | 205 | 0.0 | 9.7 | 0.00 | 0.97 | 0.97 | 87 | 996.1 |
| 20260903025541 | 13 | 175 | 1.6 | 9.7 | 0.00 | 0.97 | 0.97 | 87 | 996.0 |
| 20260903025051 | 14 | 174 | 1.6 | 8.0 | 0.00 | 0.97 | 0.97 | 87 | 996.0 |
| 20260903024529 | 14 | 162 | 0.0 | 4.8 | 0.00 | 0.97 | 0.97 | 87 | 995.9 |
| 20260903024036 | 14 | 172 | 0.0 | 9.7 | 0.00 | 0.97 | 0.97 | 87 | 995.7 |
| 20260903023541 | 14 | 172 | 3.2 | 9.7 | 0.00 | 0.97 | 0.97 | 87 | 995.7 |
| 20260903023008 | 14 | 202 | 0.0 | 4.8 | 0.00 | 0.97 | 0.97 | 86 | 995.8 |
| 20260903022524 | 14 | 202 | 1.6 | 6.4 | 0.00 | 0.97 | 0.97 | 87 | 995.7 |
| 20260903022035 | 15 | 200 | 1.6 | 6.4 | 0.00 | 0.97 | 0.97 | 87 | 995.6 |
| 20260903021502 | 15 | 150 | 0.0 | 3.2 | 0.00 | 0.97 | 0.97 | 87 | 995.5 |
| 20260903021007 | 15 | 150 | 0.0 | 11.3 | 0.00 | 0.97 | 0.97 | 87 | 995.6 |
| 20260903020515 | 15 | 150 | 0.0 | 11.3 | 0.00 | 0.97 | 0.97 | 87 | 995.6 |
| 20260903020051 | 15 | 162 | 1.6 | 11.3 | 0.00 | 0.97 | 0.97 | 86 | 995.6 |
| 20260903015557 | 15 | 170 | 1.6 | 9.7 | 0.00 | 0.97 | 0.97 | 87 | 995.5 |
| 20260903015001 | 15 | 202 | 0.0 | 3.2 | 0.00 | 0.97 | 0.97 | 87 | 995.4 |
| 20260903014545 | 15 | 196 | 0.0 | 3.2 | 0.00 | 0.97 | 0.97 | 87 | 995.4 |
| 20260903014043 | 15 | 196 | 0.0 | 3.2 | 0.00 | 0.97 | 0.97 | 87 | 995.3 |
| 20260903013551 | 15 | 196 | 0.0 | 1.6 | 0.00 | 0.97 | 0.97 | 87 | 995.4 |
| 20260903013028 | 15 | 196 | 0.0 | 4.8 | 0.00 | 0.97 | 0.97 | 86 | 995.3 |
| 20260903012531 | 15 | 196 | 0.0 | 6.4 | 0.00 | 0.97 | 0.97 | 86 | 995.3 |
| 20260903012040 | 15 | 215 | 0.0 | 4.8 | 0.00 | 0.97 | 0.97 | 87 | 995.2 |
| 20260903011518 | 15 | 228 | 0.0 | 4.8 | 0.00 | 0.97 | 0.97 | 87 | 995.2 |
| 20260903011024 | 15 | 228 | 0.0 | 6.4 | 0.00 | 0.97 | 0.97 | 87 | 995.2 |
| 20260903010530 | 15 | 227 | 1.6 | 6.4 | 0.00 | 0.97 | 0.97 | 87 | 995.2 |
| 20260903010046 | 15 | 160 | 1.6 | 8.0 | 0.00 | 0.97 | 0.97 | 87 | 995.1 |
| 20260903005553 | 15 | 189 | 0.0 | 12.9 | 0.00 | 0.97 | 0.97 | 87 | 995.2 |
| 20260903005103 | 15 | 178 | 3.2 | 12.9 | 0.00 | 0.97 | 0.97 | 87 | 995.2 |
| 20260903004538 | 15 | 182 | 1.6 | 8.0 | 0.00 | 0.97 | 0.97 | 87 | 995.1 |
| 20260903004041 | 15 | 180 | 1.6 | 11.3 | 0.00 | 0.97 | 0.97 | 87 | 995.1 |
| 20260903003551 | 15 | 166 | 0.0 | 11.3 | 0.00 | 0.97 | 0.97 | 87 | 995.0 |
| 20260903003025 | 15 | 275 | 3.2 | 9.7 | 0.00 | 0.97 | 0.97 | 87 | 995.0 |
| 20260903002531 | 15 | 175 | 0.0 | 6.4 | 0.00 | 0.97 | 0.97 | 87 | 994.9 |
| 20260903002038 | 15 | 183 | 1.6 | 8.0 | 0.00 | 0.97 | 0.97 | 87 | 994.9 |
| 20260903001504 | 15 | 155 | 1.6 | 8.0 | 0.00 | 0.97 | 0.97 | 88 | 994.9 |
| 20260903001012 | 15 | 175 | 3.2 | 8.0 | 0.00 | 0.97 | 0.97 | 88 | 994.8 |
| 20260903000524 | 15 | 149 | 0.0 | 4.8 | 0.00 | 0.97 | 0.97 | 88 | 994.8 |
| 20260903000059 | 15 | 146 | 1.6 | 6.4 | 0.00 | 0.97 | 0.97 | 88 | 994.8 |
| 20260902235602 | 15 | 209 | 0.0 | 12.9 | 0.03 | 0.97 | 0.97 | 88 | 994.8 |
| 20260902235008 | 15 | 201 | 1.6 | 12.9 | 0.03 | 0.97 | 0.97 | 88 | 994.8 |
| 20260902234543 | 15 | 154 | 1.6 | 16.1 | 0.03 | 0.97 | 0.97 | 88 | 994.8 |
| 20260902234049 | 15 | 160 | 4.8 | 16.1 | 0.03 | 0.97 | 0.97 | 89 | 994.8 |
| 20260902233555 | 15 | 113 | 1.6 | 6.4 | 0.03 | 0.97 | 0.97 | 89 | 994.7 |
| 20260902233047 | 15 | 111 | 3.2 | 8.0 | 0.03 | 0.97 | 0.97 | 89 | 994.6 |
| 20260902232543 | 15 | 165 | 3.2 | 8.0 | 0.10 | 0.97 | 0.97 | 89 | 994.7 |
| 20260902232049 | 15 | 189 | 3.2 | 8.0 | 0.18 | 0.97 | 0.97 | 89 | 994.7 |
| 20260902231527 | 15 | 117 | 0.0 | 8.0 | 0.20 | 0.97 | 0.97 | 89 | 994.8 |
| 20260902231039 | 15 | 177 | 3.2 | 8.0 | 0.20 | 0.97 | 0.97 | 89 | 994.7 |
| 20260902230548 | 15 | 215 | 1.6 | 4.8 | 0.20 | 0.97 | 0.97 | 89 | 994.7 |
| 20260902230010 | 15 | 200 | 0.0 | 8.0 | 0.18 | 0.94 | 0.97 | 89 | 994.7 |
| 20260902225525 | 14 | 200 | 0.0 | 9.7 | 0.18 | 0.94 | 0.94 | 89 | 994.4 |
| 20260902225029 | 14 | 194 | 1.6 | 9.7 | 0.18 | 0.94 | 0.94 | 89 | 994.3 |
| 20260902224605 | 14 | 212 | 0.0 | 11.3 | 0.18 | 0.94 | 0.94 | 89 | 994.3 |
| 20260902224000 | 14 | 201 | 1.6 | 6.4 | 0.18 | 0.94 | 0.94 | 89 | 994.3 |
| 20260902223503 | 14 | 168 | 1.6 | 6.4 | 0.18 | 0.94 | 0.94 | 89 | 994.3 |
| 20260902223037 | 14 | 223 | 1.6 | 11.3 | 0.18 | 0.94 | 0.94 | 89 | 994.3 |
| 20260902222545 | 14 | 261 | 3.2 | 12.9 | 0.08 | 0.84 | 0.86 | 89 | 994.2 |
| 20260902222050 | 14 | 24 | 6.4 | 19.3 | 0.03 | 0.79 | 0.79 | 89 | 994.0 |
| 20260902221524 | 14 | 209 | 6.4 | 19.3 | 0.00 | 0.76 | 0.76 | 89 | 993.8 |
| 20260902221029 | 14 | 160 | 6.4 | 16.1 | 0.00 | 0.76 | 0.76 | 89 | 993.7 |
| 20260902220536 | 14 | 189 | 3.2 | 14.5 | 0.00 | 0.76 | 0.76 | 89 | 993.7 |
| 20260902220025 | 14 | 319 | 1.6 | 16.1 | 0.00 | 0.76 | 0.76 | 89 | 993.7 |
| 20260902215510 | 14 | 223 | 3.2 | 27.4 | 0.00 | 0.76 | 0.76 | 89 | 993.6 |
| 20260902215031 | 14 | 200 | 9.7 | 27.4 | 0.03 | 0.76 | 0.76 | 89 | 993.6 |
| 20260902214607 | 14 | 161 | 4.8 | 32.2 | 0.03 | 0.76 | 0.76 | 89 | 993.6 |
| 20260902214055 | 14 | 296 | 6.4 | 32.2 | 0.03 | 0.76 | 0.76 | 89 | 993.6 |
| 20260902213603 | 14 | 193 | 1.6 | 27.4 | 0.03 | 0.76 | 0.76 | 89 | 993.5 |
| 20260902213034 | 14 | 151 | 9.7 | 29.0 | 0.03 | 0.76 | 0.76 | 89 | 993.6 |
| 20260902212546 | 14 | 355 | 3.2 | 22.5 | 0.03 | 0.76 | 0.76 | 89 | 993.6 |
| 20260902212045 | 14 | 75 | 6.4 | 22.5 | 0.03 | 0.76 | 0.76 | 89 | 993.5 |